createdAt,value
2018-10-01T00:00:16.178Z,96.30
2018-10-01T00:02:44.847Z,96.30
2018-10-01T00:05:13.472Z,96.20
2018-10-01T00:07:42.128Z,96.30
2018-10-01T00:10:10.870Z,96.30
2018-10-01T00:12:39.505Z,96.10
2018-10-01T00:15:08.183Z,96.10
2018-10-01T00:17:36.824Z,95.80
2018-10-01T00:20:10.849Z,96.00
2018-10-01T00:22:46.912Z,95.90
2018-10-01T00:25:15.880Z,95.80
2018-10-01T00:27:44.578Z,96.00
2018-10-01T00:30:13.296Z,96.10
2018-10-01T00:32:42.024Z,96.00
2018-10-01T00:35:11.028Z,95.90
2018-10-01T00:37:39.700Z,95.90
2018-10-01T00:40:08.376Z,95.90
2018-10-01T00:42:37.235Z,95.90
2018-10-01T00:45:06.695Z,95.90
2018-10-01T00:47:35.319Z,95.90
2018-10-01T00:50:04.011Z,95.80
2018-10-01T00:52:32.688Z,95.70
2018-10-01T00:55:01.336Z,95.70
2018-10-01T00:57:29.963Z,95.60
2018-10-01T00:59:58.603Z,95.70
2018-10-01T01:02:27.247Z,95.80
2018-10-01T01:04:55.878Z,95.90
2018-10-01T01:07:24.555Z,95.90
2018-10-01T01:09:53.195Z,96.10
2018-10-01T01:12:21.804Z,96.20
2018-10-01T01:14:50.799Z,96.30
2018-10-01T01:17:19.451Z,96.30
2018-10-01T01:19:48.071Z,97.00
2018-10-01T01:22:16.760Z,97.00
2018-10-01T01:24:45.368Z,97.00
2018-10-01T01:27:13.978Z,97.00
2018-10-01T01:29:42.704Z,97.00
2018-10-01T01:32:11.375Z,96.80
2018-10-01T01:34:39.992Z,96.80
2018-10-01T01:37:08.667Z,96.70
2018-10-01T01:39:37.379Z,96.70
2018-10-01T01:42:05.983Z,96.70
2018-10-01T01:44:34.627Z,96.60
2018-10-01T01:47:03.382Z,96.50
2018-10-01T01:49:32.087Z,96.50
2018-10-01T01:52:00.723Z,96.40
2018-10-01T01:54:29.385Z,96.40
2018-10-01T01:56:58.012Z,96.20
2018-10-01T01:59:26.651Z,96.00
2018-10-01T02:01:55.307Z,96.00
2018-10-01T02:04:23.996Z,95.90
2018-10-01T02:06:52.665Z,95.90
2018-10-01T02:09:21.298Z,95.80
2018-10-01T02:11:49.960Z,95.90
2018-10-01T02:14:18.589Z,95.90
2018-10-01T02:16:47.276Z,96.00
2018-10-01T02:19:15.990Z,96.00
2018-10-01T02:21:44.679Z,96.00
2018-10-01T02:24:13.332Z,96.00
2018-10-01T02:26:41.971Z,95.90
2018-10-01T02:29:10.946Z,95.90
2018-10-01T02:31:39.816Z,95.80
2018-10-01T02:34:08.279Z,96.30
2018-10-01T02:36:36.919Z,95.60
2018-10-01T02:39:09.087Z,95.40
2018-10-01T02:41:37.811Z,95.10
2018-10-01T02:44:06.544Z,94.90
2018-10-01T02:46:35.248Z,95.20
2018-10-01T02:49:03.968Z,95.30
2018-10-01T02:51:36.982Z,95.60
2018-10-01T02:54:10.861Z,95.40
2018-10-01T02:56:39.478Z,95.40
2018-10-01T02:59:08.151Z,95.50
2018-10-01T03:01:36.818Z,95.50
2018-10-01T03:04:05.509Z,95.50
2018-10-01T03:06:34.158Z,95.30
2018-10-01T03:09:02.800Z,95.30
2018-10-01T03:11:31.533Z,95.40
2018-10-01T03:14:00.204Z,95.40
2018-10-01T03:16:28.820Z,95.40
2018-10-01T03:18:57.521Z,95.00
2018-10-01T03:21:26.312Z,94.80
2018-10-01T03:23:54.862Z,94.60
2018-10-01T03:26:23.493Z,94.80
2018-10-01T03:28:52.132Z,94.80
2018-10-01T03:31:21.046Z,94.60
2018-10-01T03:33:49.664Z,94.70
2018-10-01T03:36:18.266Z,94.20
2018-10-01T03:38:47.002Z,94.40
2018-10-01T03:41:15.652Z,94.20
2018-10-01T03:43:44.275Z,93.80
2018-10-01T03:46:12.942Z,93.60
2018-10-01T03:48:41.580Z,94.00
2018-10-01T03:51:10.253Z,94.10
2018-10-01T03:53:38.907Z,94.00
2018-10-01T03:56:07.567Z,94.40
2018-10-01T03:58:36.197Z,94.10
2018-10-01T04:01:04.908Z,94.00
2018-10-01T04:03:33.525Z,94.30
2018-10-01T04:06:02.308Z,94.10
2018-10-01T04:08:30.907Z,93.80
2018-10-01T04:10:59.555Z,93.60
2018-10-01T04:13:28.341Z,93.10
2018-10-01T04:15:56.989Z,93.20
2018-10-01T04:18:25.602Z,93.00
2018-10-01T04:20:54.263Z,93.40
2018-10-01T04:23:22.938Z,93.00
2018-10-01T04:25:51.615Z,92.70
2018-10-01T04:28:20.352Z,92.80
2018-10-01T04:30:48.965Z,92.90
2018-10-01T04:33:17.648Z,92.60
2018-10-01T04:35:46.316Z,93.00
2018-10-01T04:38:14.972Z,92.30
2018-10-01T04:40:43.679Z,92.70
2018-10-01T04:43:12.296Z,92.50
2018-10-01T04:45:40.924Z,92.60
2018-10-01T04:48:10.168Z,92.80
2018-10-01T04:50:38.842Z,93.10
2018-10-01T04:53:07.487Z,93.30
2018-10-01T04:55:36.380Z,93.50
2018-10-01T04:58:05.068Z,93.60
2018-10-01T05:00:33.684Z,94.10
2018-10-01T05:03:02.352Z,94.30
2018-10-01T05:05:30.967Z,94.50
2018-10-01T05:07:59.622Z,94.70
2018-10-01T05:10:28.275Z,94.80
2018-10-01T05:12:56.952Z,94.90
2018-10-01T05:15:25.675Z,94.90
2018-10-01T05:17:54.318Z,95.00
2018-10-01T05:20:22.996Z,95.20
2018-10-01T05:22:51.616Z,95.30
2018-10-01T05:25:20.534Z,95.30
2018-10-01T05:27:49.203Z,95.30
2018-10-01T05:30:17.886Z,95.40
2018-10-01T05:32:46.551Z,95.50
2018-10-01T05:35:15.205Z,95.60
2018-10-01T05:37:43.844Z,95.90
2018-10-01T05:40:12.485Z,95.90
2018-10-01T05:42:41.535Z,95.80
2018-10-01T05:45:10.179Z,95.80
2018-10-01T05:47:38.857Z,95.70
2018-10-01T05:50:08.312Z,95.70
2018-10-01T05:52:36.907Z,95.60
2018-10-01T05:55:05.592Z,95.50
2018-10-01T05:57:34.287Z,95.40
2018-10-01T06:00:03.236Z,95.40
2018-10-01T06:02:31.944Z,95.40
2018-10-01T06:05:00.600Z,95.40
2018-10-01T06:07:29.256Z,95.40
2018-10-01T06:09:57.910Z,95.30
2018-10-01T06:12:26.598Z,95.40
2018-10-01T06:14:55.244Z,95.40
2018-10-01T06:17:23.855Z,95.30
2018-10-01T06:19:53.056Z,95.20
2018-10-01T06:22:21.691Z,94.90
2018-10-01T06:24:50.309Z,94.90
2018-10-01T06:27:18.968Z,94.60
2018-10-01T06:29:47.617Z,94.60
2018-10-01T06:32:16.265Z,94.70
2018-10-01T06:34:44.928Z,94.60
2018-10-01T06:37:13.636Z,94.50
2018-10-01T06:39:42.244Z,94.40
2018-10-01T06:42:10.911Z,94.70
2018-10-01T06:44:39.596Z,94.60
2018-10-01T06:47:08.264Z,94.80
2018-10-01T06:49:36.919Z,95.10
2018-10-01T06:52:05.551Z,95.10
2018-10-01T06:54:34.215Z,94.80
2018-10-01T06:57:02.818Z,95.10
2018-10-01T06:59:31.396Z,94.80
2018-10-01T07:02:00.091Z,94.70
2018-10-01T07:04:28.712Z,94.70
2018-10-01T07:06:57.345Z,94.60
2018-10-01T07:09:26.099Z,94.40
2018-10-01T07:11:54.751Z,94.40
2018-10-01T07:14:23.437Z,94.50
2018-10-01T07:16:52.128Z,94.30
2018-10-01T07:19:20.775Z,93.60
2018-10-01T07:21:49.404Z,93.60
2018-10-01T07:24:18.058Z,93.40
2018-10-01T07:26:46.779Z,93.70
2018-10-01T07:29:15.403Z,93.40
2018-10-01T07:31:44.062Z,93.60
2018-10-01T07:34:12.690Z,93.70
2018-10-01T07:36:41.355Z,93.60
2018-10-01T07:39:10.038Z,93.50
2018-10-01T07:41:38.675Z,93.40
2018-10-01T07:44:07.808Z,92.90
2018-10-01T07:46:36.420Z,92.70
2018-10-01T07:49:05.376Z,92.30
2018-10-01T07:51:34.021Z,92.00
2018-10-01T07:54:02.647Z,91.80
2018-10-01T07:56:31.284Z,91.10
2018-10-01T07:58:59.908Z,91.10
2018-10-01T08:01:28.537Z,91.00
2018-10-01T08:03:57.244Z,91.00
2018-10-01T08:06:25.923Z,90.70
2018-10-01T08:08:54.559Z,90.00
2018-10-01T08:11:23.231Z,89.20
2018-10-01T08:13:51.928Z,89.90
2018-10-01T08:16:20.644Z,88.70
2018-10-01T08:18:49.348Z,89.10
2018-10-01T08:21:17.971Z,87.10
2018-10-01T08:23:46.916Z,87.20
2018-10-01T08:26:15.638Z,86.70
2018-10-01T08:28:44.276Z,86.60
2018-10-01T08:31:12.925Z,85.00
2018-10-01T08:33:41.543Z,86.30
2018-10-01T08:36:10.149Z,85.00
2018-10-01T08:38:38.820Z,85.40
2018-10-01T08:41:07.694Z,85.30
2018-10-01T08:43:36.372Z,84.30
2018-10-01T08:46:05.047Z,85.10
2018-10-01T08:48:35.947Z,86.40
2018-10-01T08:51:11.711Z,84.90
2018-10-01T08:54:46.339Z,84.80
2018-10-01T08:57:14.991Z,84.70
2018-10-01T08:59:43.612Z,83.50
2018-10-01T09:02:12.277Z,81.70
2018-10-01T09:04:40.910Z,80.80
2018-10-01T09:07:09.586Z,81.70
2018-10-01T09:09:38.227Z,81.10
2018-10-01T09:12:06.880Z,82.40
2018-10-01T09:14:35.557Z,81.40
2018-10-01T09:17:04.309Z,81.80
2018-10-01T09:19:32.903Z,80.80
2018-10-01T09:22:01.560Z,81.50
2018-10-01T09:24:30.251Z,80.70
2018-10-01T09:26:58.900Z,80.10
2018-10-01T09:29:27.543Z,79.00
2018-10-01T09:31:56.221Z,79.70
2018-10-01T09:34:25.101Z,78.10
2018-10-01T09:36:53.757Z,78.20
2018-10-01T09:39:22.340Z,78.20
2018-10-01T09:41:50.952Z,77.10
2018-10-01T09:44:19.588Z,76.20
2018-10-01T09:46:48.222Z,74.50
2018-10-01T09:49:16.847Z,75.50
2018-10-01T09:51:45.502Z,74.80
2018-10-01T09:54:14.104Z,74.10
2018-10-01T09:56:42.869Z,74.00
2018-10-01T09:59:11.534Z,76.30
2018-10-01T10:01:40.170Z,75.80
2018-10-01T10:04:09.149Z,77.10
2018-10-01T10:06:37.779Z,73.50
2018-10-01T10:09:09.008Z,75.70
2018-10-01T10:11:37.708Z,76.10
2018-10-01T10:14:06.430Z,79.20
2018-10-01T10:16:35.218Z,85.00
2018-10-01T10:19:03.779Z,87.10
2018-10-01T10:21:32.443Z,89.20
2018-10-01T10:24:01.117Z,88.40
2018-10-01T10:26:29.762Z,88.50
2018-10-01T10:28:58.741Z,88.50
2018-10-01T10:31:27.447Z,90.30
2018-10-01T10:33:56.076Z,90.70
2018-10-01T10:36:24.703Z,91.80
2018-10-01T10:38:53.344Z,91.20
2018-10-01T10:41:21.987Z,90.30
2018-10-01T10:43:50.639Z,90.80
2018-10-01T10:46:19.289Z,89.00
2018-10-01T10:48:48.773Z,87.60
2018-10-01T10:51:17.460Z,87.40
2018-10-01T10:53:46.180Z,85.90
2018-10-01T10:56:14.811Z,85.80
2018-10-01T10:58:43.542Z,84.80
2018-10-01T11:01:12.197Z,81.20
2018-10-01T11:03:40.848Z,79.90
2018-10-01T11:06:09.459Z,80.10
2018-10-01T11:08:38.389Z,77.60
2018-10-01T11:11:07.041Z,79.20
2018-10-01T11:13:35.707Z,84.60
2018-10-01T11:16:04.355Z,88.80
2018-10-01T11:18:33.005Z,90.00
2018-10-01T11:21:01.787Z,91.20
2018-10-01T11:23:30.389Z,91.60
2018-10-01T11:25:59.068Z,91.40
2018-10-01T11:28:27.785Z,91.50
2018-10-01T11:30:56.407Z,91.90
2018-10-01T11:33:25.051Z,91.70
2018-10-01T11:35:53.649Z,90.60
2018-10-01T11:38:22.276Z,90.30
2018-10-01T11:40:50.911Z,91.80
2018-10-01T11:43:19.519Z,91.00
2018-10-01T11:45:48.350Z,90.70
2018-10-01T11:48:16.947Z,89.80
2018-10-01T11:50:45.559Z,90.30
2018-10-01T11:53:14.187Z,90.40
2018-10-01T11:55:42.950Z,89.40
2018-10-01T11:58:11.607Z,90.00
2018-10-01T12:00:40.255Z,89.20
2018-10-01T12:03:09.220Z,84.20
2018-10-01T12:05:37.849Z,85.50
2018-10-01T12:08:06.523Z,84.10
2018-10-01T12:10:35.181Z,85.20
2018-10-01T12:13:03.822Z,84.40
2018-10-01T12:15:32.830Z,83.20
2018-10-01T12:18:01.402Z,86.60
2018-10-01T12:20:30.120Z,85.40
2018-10-01T12:22:58.848Z,86.70
2018-10-01T12:25:27.500Z,87.70
2018-10-01T12:27:56.163Z,89.80
2018-10-01T12:30:25.081Z,89.50
2018-10-01T12:32:53.724Z,90.70
2018-10-01T12:35:22.347Z,91.10
2018-10-01T12:37:51.028Z,91.50
2018-10-01T12:40:19.697Z,91.70
2018-10-01T12:42:48.381Z,91.40
2018-10-01T12:45:17.130Z,88.60
2018-10-01T12:47:45.753Z,89.70
2018-10-01T12:50:14.394Z,88.70
2018-10-01T12:52:42.966Z,87.40
2018-10-01T12:55:11.636Z,84.70
2018-10-01T12:57:40.342Z,81.20
2018-10-01T13:00:08.984Z,77.60
2018-10-01T13:02:37.596Z,75.40
2018-10-01T13:05:06.599Z,78.80
2018-10-01T13:07:35.161Z,73.90
2018-10-01T13:10:03.922Z,70.50
2018-10-01T13:12:32.614Z,67.70
2018-10-01T13:15:01.224Z,66.20
2018-10-01T13:17:29.880Z,66.10
2018-10-01T13:19:58.551Z,67.50
2018-10-01T13:22:27.206Z,68.40
2018-10-01T13:24:55.916Z,69.90
2018-10-01T13:27:24.560Z,70.70
2018-10-01T13:29:53.248Z,73.70
2018-10-01T13:32:21.895Z,70.80
2018-10-01T13:34:50.540Z,69.50
2018-10-01T13:37:19.529Z,72.60
2018-10-01T13:39:48.170Z,72.90
2018-10-01T13:42:16.883Z,69.20
2018-10-01T13:44:46.707Z,70.00
2018-10-01T13:47:15.347Z,81.20
2018-10-01T13:49:43.966Z,89.40
2018-10-01T13:52:12.684Z,90.60
2018-10-01T13:54:41.599Z,90.80
2018-10-01T13:57:10.295Z,85.10
2018-10-01T13:59:38.971Z,84.20
2018-10-01T14:02:07.984Z,82.40
2018-10-01T14:04:36.511Z,88.00
2018-10-01T14:07:05.228Z,90.50
2018-10-01T14:09:33.929Z,87.50
2018-10-01T14:12:02.559Z,85.50
2018-10-01T14:14:31.230Z,87.50
2018-10-01T14:16:59.988Z,85.40
2018-10-01T14:19:28.824Z,87.10
2018-10-01T14:21:57.452Z,87.00
2018-10-01T14:24:26.060Z,85.70
2018-10-01T14:26:54.708Z,86.80
2018-10-01T14:29:23.357Z,86.40
2018-10-01T14:31:52.116Z,86.60
2018-10-01T14:34:20.781Z,89.00
2018-10-01T14:36:49.601Z,89.20
2018-10-01T14:39:18.111Z,90.30
2018-10-01T14:41:46.784Z,87.80
2018-10-01T14:44:15.831Z,88.70
2018-10-01T14:46:44.484Z,89.10
2018-10-01T14:49:13.151Z,88.10
2018-10-01T14:51:41.764Z,86.70
2018-10-01T14:54:10.437Z,90.50
2018-10-01T14:56:39.095Z,92.20
2018-10-01T14:59:07.719Z,92.00
2018-10-01T15:01:36.431Z,90.50
2018-10-01T15:04:05.090Z,90.40
2018-10-01T15:06:33.734Z,90.50
2018-10-01T15:09:02.391Z,88.60
2018-10-01T15:11:31.035Z,90.10
2018-10-01T15:13:59.686Z,87.40
2018-10-01T15:16:28.406Z,87.60
2018-10-01T15:18:57.026Z,89.80
2018-10-01T15:21:25.664Z,88.50
2018-10-01T15:23:54.429Z,87.70
2018-10-01T15:26:23.188Z,87.50
2018-10-01T15:28:51.852Z,88.10
2018-10-01T15:31:20.453Z,90.20
2018-10-01T15:33:49.071Z,90.40
2018-10-01T15:36:17.709Z,88.80
2018-10-01T15:38:46.339Z,86.10
2018-10-01T15:41:14.942Z,89.70
2018-10-01T15:43:43.583Z,86.00
2018-10-01T15:46:12.218Z,83.30
2018-10-01T15:48:40.858Z,84.90
2018-10-01T15:51:09.539Z,84.30
2018-10-01T15:53:38.147Z,83.40
2018-10-01T15:56:06.821Z,83.50
2018-10-01T15:58:35.484Z,83.80
2018-10-01T16:01:04.156Z,81.40
2018-10-01T16:03:32.787Z,82.50
2018-10-01T16:06:01.487Z,84.40
2018-10-01T16:08:30.244Z,86.00
2018-10-01T16:10:59.259Z,84.50
2018-10-01T16:13:27.894Z,83.30
2018-10-01T16:15:56.523Z,87.80
2018-10-01T16:18:25.276Z,86.50
2018-10-01T16:20:53.923Z,85.00
2018-10-01T16:23:22.612Z,86.00
2018-10-01T16:25:51.237Z,83.60
2018-10-01T16:28:19.880Z,88.90
2018-10-01T16:30:48.550Z,90.40
2018-10-01T16:33:17.189Z,90.00
2018-10-01T16:35:45.837Z,90.30
2018-10-01T16:38:14.531Z,90.90
2018-10-01T16:40:43.213Z,90.40
2018-10-01T16:43:11.887Z,91.10
2018-10-01T16:45:40.481Z,90.80
2018-10-01T16:48:09.116Z,90.70
2018-10-01T16:50:37.787Z,90.80
2018-10-01T16:53:06.431Z,91.90
2018-10-01T16:55:35.108Z,91.20
2018-10-01T16:58:03.779Z,91.20
2018-10-01T17:00:32.431Z,90.70
2018-10-01T17:03:01.104Z,91.10
2018-10-01T17:05:29.702Z,90.70
2018-10-01T17:07:58.616Z,90.90
2018-10-01T17:10:27.230Z,90.40
2018-10-01T17:12:55.886Z,90.30
2018-10-01T17:15:24.601Z,91.00
2018-10-01T17:17:53.229Z,90.90
2018-10-01T17:20:21.912Z,91.20
2018-10-01T17:22:50.668Z,90.50
2018-10-01T17:25:19.303Z,90.60
2018-10-01T17:27:47.940Z,90.50
2018-10-01T17:30:16.750Z,90.20
2018-10-01T17:32:45.348Z,90.60
2018-10-01T17:35:14.039Z,89.60
2018-10-01T17:37:42.703Z,89.60
2018-10-01T17:40:11.449Z,89.70
2018-10-01T17:42:40.116Z,90.30
2018-10-01T17:45:08.797Z,88.60
2018-10-01T17:47:37.489Z,89.30
2018-10-01T17:50:06.355Z,90.40
2018-10-01T17:52:35.228Z,89.00
2018-10-01T17:55:03.879Z,89.30
2018-10-01T17:57:32.514Z,89.70
2018-10-01T18:00:01.230Z,90.00
2018-10-01T18:02:29.900Z,90.10
2018-10-01T18:04:58.548Z,90.20
2018-10-01T18:07:27.220Z,90.50
2018-10-01T18:09:55.824Z,90.70
2018-10-01T18:12:24.441Z,91.40
2018-10-01T18:14:53.075Z,91.20
2018-10-01T18:17:21.711Z,91.20
2018-10-01T18:19:50.343Z,91.50
2018-10-01T18:22:19.025Z,92.10
2018-10-01T18:24:47.686Z,91.80
2018-10-01T18:27:16.329Z,92.20
2018-10-01T18:29:45.021Z,92.60
2018-10-01T18:32:13.662Z,92.20
2018-10-01T18:34:42.318Z,92.20
2018-10-01T18:37:10.964Z,92.40
2018-10-01T18:39:39.751Z,92.20
2018-10-01T18:42:08.419Z,92.30
2018-10-01T18:44:37.228Z,92.40
2018-10-01T18:47:06.061Z,92.00
2018-10-01T18:49:34.706Z,91.90
2018-10-01T18:52:03.372Z,92.40
2018-10-01T18:54:32.022Z,92.50
2018-10-01T18:57:00.708Z,92.00
2018-10-01T18:59:29.369Z,92.00
2018-10-01T19:01:58.096Z,92.20
2018-10-01T19:04:26.687Z,92.20
2018-10-01T19:06:55.411Z,92.70
2018-10-01T19:09:24.051Z,92.40
2018-10-01T19:11:52.711Z,92.30
2018-10-01T19:14:21.379Z,92.50
2018-10-01T19:16:50.070Z,92.10
2018-10-01T19:19:18.766Z,92.70
2018-10-01T19:21:47.398Z,92.80
2018-10-01T19:24:16.044Z,92.70
2018-10-01T19:26:44.744Z,92.70
2018-10-01T19:29:13.418Z,93.00
2018-10-01T19:31:42.159Z,92.90
2018-10-01T19:34:10.807Z,93.50
2018-10-01T19:36:39.471Z,93.20
2018-10-01T19:39:08.795Z,93.00
2018-10-01T19:41:37.489Z,93.50
2018-10-01T19:44:06.228Z,93.50
2018-10-01T19:46:34.922Z,93.40
2018-10-01T19:49:03.556Z,93.60
2018-10-01T19:51:32.270Z,93.80
2018-10-01T19:54:00.979Z,93.90
2018-10-01T19:56:29.649Z,93.80
2018-10-01T19:58:58.361Z,94.00
2018-10-01T20:01:26.976Z,94.20
2018-10-01T20:03:55.647Z,94.20
2018-10-01T20:06:24.315Z,94.30
2018-10-01T20:08:53.024Z,94.50
2018-10-01T20:11:21.719Z,94.90
2018-10-01T20:13:50.332Z,94.60
2018-10-01T20:16:18.939Z,94.60
2018-10-01T20:18:47.609Z,94.70
2018-10-01T20:21:16.367Z,94.60
2018-10-01T20:23:45.008Z,94.80
2018-10-01T20:26:13.707Z,94.70
2018-10-01T20:28:42.548Z,94.70
2018-10-01T20:31:11.126Z,94.70
2018-10-01T20:33:39.736Z,94.80
2018-10-01T20:36:08.587Z,94.90
2018-10-01T20:38:37.294Z,95.00
2018-10-01T20:41:06.017Z,95.00
2018-10-01T20:43:34.636Z,95.00
2018-10-01T20:46:03.301Z,95.10
2018-10-01T20:48:31.921Z,95.10
2018-10-01T20:51:00.591Z,95.00
2018-10-01T20:53:29.443Z,95.10
2018-10-01T20:55:58.091Z,95.10
2018-10-01T20:58:26.731Z,95.10
2018-10-01T21:00:55.390Z,95.10
2018-10-01T21:03:24.072Z,95.10
2018-10-01T21:05:52.680Z,95.20
2018-10-01T21:08:21.341Z,95.10
2018-10-01T21:10:49.985Z,95.10
2018-10-01T21:13:18.643Z,95.10
2018-10-01T21:15:47.291Z,95.10
2018-10-01T21:18:15.973Z,95.20
2018-10-01T21:20:44.756Z,95.20
2018-10-01T21:23:13.413Z,95.20
2018-10-01T21:25:42.053Z,95.40
2018-10-01T21:28:10.764Z,95.50
2018-10-01T21:30:39.449Z,95.60
2018-10-01T21:33:08.223Z,95.70
2018-10-01T21:35:36.917Z,95.70
2018-10-01T21:38:05.618Z,95.80
2018-10-01T21:40:34.297Z,95.80
2018-10-01T21:43:03.006Z,95.70
2018-10-01T21:45:31.634Z,95.70
2018-10-01T21:48:00.273Z,95.70
2018-10-01T21:50:28.981Z,95.70
2018-10-01T21:52:57.698Z,95.80
2018-10-01T21:55:26.368Z,95.80
2018-10-01T21:57:55.065Z,96.20
2018-10-01T22:00:23.820Z,96.00
2018-10-01T22:02:52.561Z,95.90
2018-10-01T22:05:21.210Z,95.90
2018-10-01T22:07:49.793Z,95.80
2018-10-01T22:10:18.440Z,95.90
2018-10-01T22:12:47.105Z,95.90
2018-10-01T22:15:15.742Z,95.80
2018-10-01T22:17:44.400Z,95.70
2018-10-01T22:20:13.052Z,95.70
2018-10-01T22:22:41.704Z,95.70
2018-10-01T22:25:10.371Z,95.70
2018-10-01T22:27:39.050Z,95.70
2018-10-01T22:30:07.957Z,95.70
2018-10-01T22:32:36.629Z,95.70
2018-10-01T22:35:05.406Z,95.80
2018-10-01T22:37:34.122Z,95.80
2018-10-01T22:40:02.844Z,96.10
2018-10-01T22:42:31.509Z,95.80
2018-10-01T22:45:00.127Z,95.80
2018-10-01T22:47:28.813Z,95.90
2018-10-01T22:49:57.481Z,95.90
2018-10-01T22:52:26.253Z,95.90
2018-10-01T22:54:54.892Z,95.80
2018-10-01T22:57:23.597Z,95.80
2018-10-01T22:59:52.288Z,96.20
2018-10-01T23:02:20.921Z,95.90
2018-10-01T23:04:49.669Z,96.00
2018-10-01T23:07:18.306Z,96.00
2018-10-01T23:09:47.068Z,96.10
2018-10-01T23:12:15.726Z,96.10
2018-10-01T23:14:44.386Z,96.10
2018-10-01T23:17:13.133Z,96.20
2018-10-01T23:19:41.761Z,96.30
2018-10-01T23:22:10.394Z,96.40
2018-10-01T23:24:39.107Z,96.30
2018-10-01T23:27:07.797Z,96.40
2018-10-01T23:29:36.458Z,96.60
2018-10-01T23:32:05.314Z,96.60
2018-10-01T23:34:33.908Z,96.70
2018-10-01T23:37:02.633Z,96.70
2018-10-01T23:39:31.352Z,96.80
2018-10-01T23:42:00.050Z,96.80
2018-10-01T23:44:28.752Z,96.80
2018-10-01T23:46:57.397Z,96.80
2018-10-01T23:49:26.080Z,97.00
2018-10-01T23:51:54.837Z,97.10
2018-10-01T23:54:23.489Z,97.20
2018-10-01T23:56:52.163Z,97.10
2018-10-01T23:59:20.894Z,97.20
